Time;durP1;ratioP1;P1;durP2;ratioP2;P2;SDS_P1;SDS_P2;PMS_P1;PMS_P2;Temp;Humidity;BMP_temperature;BMP_pressure;BME280_temperature;BME280_humidity;BME280_pressure;Samples;Min_cycle;Max_cycle;Signal;HPM_P1;HPM_P2
2023/12/02 00:00:53;;;;;;;;;64.33;49.67;;;;;2.45;100.00;97920.00;6311760;20;3628430;-47
2023/12/02 00:03:43;;;;;;;;;57.00;43.33;;;;;2.46;100.00;97931.44;6309796;20;2876516;-48
2023/12/02 00:06:12;;;;;;;;;66.00;50.00;;;;;2.41;100.00;97919.28;6311303;20;2863940;-47
2023/12/02 00:08:42;;;;;;;;;67.67;51.00;;;;;2.60;100.00;97920.88;6281754;20;3634676;-49
2023/12/02 00:11:12;;;;;;;;;46.50;39.50;;;;;2.65;100.00;97913.53;6313800;20;2841961;-52
2023/12/02 00:13:41;;;;;;;;;48.00;39.00;;;;;2.54;100.00;97916.78;6283674;20;3627345;-49
2023/12/02 00:16:10;;;;;;;;;60.00;43.00;;;;;2.79;100.00;97923.31;6311921;20;2859724;-54
2023/12/02 00:18:39;;;;;;;;;61.00;44.50;;;;;2.68;100.00;97929.22;6282518;20;2850300;-49
2023/12/02 00:21:08;;;;;;;;;51.00;43.00;;;;;2.58;100.00;97933.34;6279624;20;2508727;-50
2023/12/02 00:23:37;;;;;;;;;58.50;45.00;;;;;2.66;100.00;97935.56;6283456;20;2864893;-52
2023/12/02 00:26:05;;;;;;;;;52.00;43.50;;;;;2.66;100.00;97939.09;6277559;20;2498215;-49
2023/12/02 00:28:34;;;;;;;;;56.00;42.00;;;;;2.71;100.00;97933.50;6281046;20;2858605;-50
2023/12/02 00:31:04;;;;;;;;;47.00;40.00;;;;;2.77;100.00;97935.81;6278020;20;2855590;-49
2023/12/02 00:33:33;;;;;;;;;50.67;41.33;;;;;2.80;100.00;97928.53;6279963;20;2859661;-48
2023/12/02 00:36:04;;;;;;;;;51.00;39.33;;;;;2.61;100.00;97938.50;6312922;20;2871253;-53
2023/12/02 00:38:33;;;;;;;;;62.00;49.00;;;;;2.63;100.00;97933.94;6310886;20;2852457;-51
2023/12/02 00:41:01;;;;;;;;;64.50;51.50;;;;;2.68;100.00;97923.94;6276211;20;2496088;-49
2023/12/02 00:43:31;;;;;;;;;56.33;40.33;;;;;2.72;100.00;97920.19;6279126;20;3622111;-50
2023/12/02 00:46:01;;;;;;;;;51.67;40.67;;;;;2.82;100.00;97909.91;6308564;20;2869051;-48
2023/12/02 00:48:30;;;;;;;;;43.00;31.00;;;;;2.69;100.00;97903.63;6311503;20;2881563;-50
2023/12/02 00:51:00;;;;;;;;;41.00;38.33;;;;;2.83;100.00;97920.41;6311481;20;2855502;-50
2023/12/02 00:53:30;;;;;;;;;66.33;40.33;;;;;2.98;100.00;97920.44;6311713;20;3633633;-50
2023/12/02 00:55:59;;;;;;;;;60.00;46.00;;;;;3.05;100.00;97927.06;6312920;20;2851311;-45
2023/12/02 00:58:27;;;;;;;;;41.50;34.50;;;;;2.91;100.00;97924.41;6275213;20;2500287;-45
2023/12/02 01:01:09;;;;;;;;;48.67;38.33;;;;;2.99;100.00;97920.34;6277703;20;3624239;-47
2023/12/02 01:03:39;;;;;;;;;40.67;30.00;;;;;3.06;100.00;97918.19;6311271;20;2869108;-47
2023/12/02 01:06:09;;;;;;;;;41.50;35.00;;;;;2.93;100.00;97918.06;6308945;20;2863840;-47
2023/12/02 01:08:38;;;;;;;;;76.00;55.67;;;;;3.05;100.00;97912.06;6276911;20;3638812;-52
2023/12/02 01:11:08;;;;;;;;;47.67;38.33;;;;;2.76;100.00;97902.28;6311650;20;2869175;-48
2023/12/02 01:13:37;;;;;;;;;45.00;35.50;;;;;2.82;100.00;97909.91;6312392;20;2868065;-47
2023/12/02 01:16:07;;;;;;;;;32.50;28.00;;;;;3.07;100.00;97904.84;6279245;20;2849364;-49
2023/12/02 01:18:36;;;;;;;;;37.00;28.00;;;;;3.07;100.00;97910.13;6282222;20;2851408;-46
2023/12/02 01:21:06;;;;;;;;;30.00;27.50;;;;;2.93;100.00;97893.38;6279481;20;2853461;-47
2023/12/02 01:23:34;;;;;;;;;40.00;34.00;;;;;2.93;100.00;97896.00;6274692;20;2500245;-48
2023/12/02 01:26:03;;;;;;;;;40.00;32.00;;;;;2.99;100.00;97896.50;6278765;20;2847154;-51
2023/12/02 01:28:32;;;;;;;;;47.00;32.33;;;;;2.94;100.00;97881.81;6279841;20;2876335;-50
2023/12/02 01:31:01;;;;;;;;;47.50;34.00;;;;;2.93;100.00;97896.00;6311667;20;2862269;-47
2023/12/02 01:33:30;;;;;;;;;47.33;33.33;;;;;2.90;100.00;97880.28;6278660;20;3602340;-53
2023/12/02 01:35:59;;;;;;;;;40.50;31.50;;;;;2.71;100.00;97865.47;6278650;20;2862744;-52
2023/12/02 01:38:29;;;;;;;;;40.67;34.67;;;;;2.75;100.00;97876.75;6276175;20;2860705;-50
2023/12/02 01:40:58;;;;;;;;;36.50;31.50;;;;;3.01;100.00;97883.16;6309782;20;2850377;-51
2023/12/02 01:43:28;;;;;;;;;44.33;33.33;;;;;2.94;100.00;97885.31;6281516;20;2864966;-48
2023/12/02 01:45:57;;;;;;;;;42.00;34.50;;;;;3.15;100.00;97874.38;6315088;20;2875305;-43
2023/12/02 01:48:32;;;;;;;;;60.50;49.00;;;;;3.02;100.00;97868.94;6284260;20;2864891;-43
2023/12/02 01:51:03;;;;;;;;;52.00;42.50;;;;;2.92;100.00;97863.34;6282608;20;2847220;-44
2023/12/02 01:53:32;;;;;;;;;49.67;38.00;;;;;3.18;100.00;97864.41;6284525;20;2882667;-42
2023/12/02 01:56:04;;;;;;;;;442.00;331.75;;;;;3.24;100.00;97864.06;6318086;20;4530461;-42
2023/12/02 01:58:36;;;;;;;;;49.33;39.00;;;;;3.47;100.00;97880.34;6279178;20;3608697;-42
2023/12/02 02:01:05;;;;;;;;;111.00;88.50;;;;;3.40;100.00;97876.38;6311746;20;1943068;-41
2023/12/02 02:03:34;;;;;;;;;100.00;80.00;;;;;3.55;100.00;97886.03;6283969;20;3683585;-41
2023/12/02 02:06:07;;;;;;;;;43.00;35.33;;;;;3.57;100.00;97881.47;6280673;20;2858622;-41
2023/12/02 02:08:37;;;;;;;;;68.33;53.67;;;;;3.45;100.00;97887.53;6313973;20;2868009;-43
2023/12/02 02:11:07;;;;;;;;;37.00;30.33;;;;;3.58;100.00;97891.16;6311923;20;2855544;-41
2023/12/02 02:13:36;;;;;;;;;36.00;32.50;;;;;3.72;100.00;97883.19;6314552;20;2853410;-41
2023/12/02 02:16:06;;;;;;;;;93.33;65.33;;;;;3.36;100.00;97877.50;6281787;20;3652377;-41
2023/12/02 02:18:37;;;;;;;;;34.00;28.00;;;;;3.48;100.00;97876.75;6283270;20;2500260;-43
2023/12/02 02:21:07;;;;;;;;;36.67;33.67;;;;;3.47;100.00;97875.03;6283709;20;3606526;-44
2023/12/02 02:23:37;;;;;;;;;51.33;30.67;;;;;3.28;100.00;97873.50;6313187;20;3636758;-41
2023/12/02 02:26:07;;;;;;;;;45.00;34.33;;;;;3.41;100.00;97840.94;6314353;20;3607596;-41
2023/12/02 02:28:36;;;;;;;;;90.00;63.67;;;;;3.49;100.00;97836.00;6314497;20;3648233;-42
2023/12/02 02:31:07;;;;;;;;;137.00;92.00;;;;;3.36;100.00;97835.06;6314186;20;3701358;-41
2023/12/02 02:33:37;;;;;;;;;96.33;64.00;;;;;3.35;100.00;97855.44;6313779;20;3659672;-42
2023/12/02 02:36:08;;;;;;;;;84.00;60.33;;;;;3.86;100.00;97853.09;6282983;20;3651423;-43
2023/12/02 02:38:39;;;;;;;;;103.50;85.00;;;;;3.70;100.00;97855.03;6314448;20;3685701;-40
2023/12/02 02:41:28;;;;;;;;;47.67;38.67;;;;;3.77;100.00;97850.19;6314728;20;2874292;-48
2023/12/02 02:44:18;;;;;;;;;61.33;44.33;;;;;3.81;100.00;97849.03;6313609;20;3622159;-41
2023/12/02 02:47:08;;;;;;;;;34.67;25.67;;;;;3.67;100.00;97844.63;6312274;20;2862844;-42
2023/12/02 02:49:57;;;;;;;;;62.67;43.00;;;;;3.64;100.00;97856.28;6314636;20;2864959;-41
2023/12/02 02:52:48;;;;;;;;;46.67;34.00;;;;;3.66;100.00;97834.94;6313847;20;2869114;-40
2023/12/02 02:55:38;;;;;;;;;46.67;36.33;;;;;3.57;100.00;97815.13;6312688;20;2874399;-41
2023/12/02 02:58:34;;;;;;;;;55.33;38.67;;;;;3.66;100.00;97811.03;6312332;20;3628429;-44
2023/12/02 03:01:23;;;;;;;;;37.00;30.00;;;;;3.41;100.00;97811.75;6314061;20;2853414;-41
2023/12/02 03:04:13;;;;;;;;;47.33;29.67;;;;;3.33;100.00;97825.50;6284551;20;3632561;-41
2023/12/02 03:07:03;;;;;;;;;40.00;32.00;;;;;3.31;100.00;97824.72;6313380;20;2871176;-41
2023/12/02 03:09:52;;;;;;;;;30.50;26.00;;;;;3.58;100.00;97819.53;6316547;20;2841966;-42
2023/12/02 03:12:41;;;;;;;;;32.00;26.50;;;;;3.56;100.00;97825.88;6278284;20;2841004;-42
2023/12/02 03:15:30;;;;;;;;;37.00;23.00;;;;;3.60;100.00;97828.22;6284888;20;2855538;-42
2023/12/02 03:18:18;;;;;;;;;32.00;28.00;;;;;3.42;100.00;97830.25;6280658;20;2500266;-41
2023/12/02 03:21:07;;;;;;;;;25.50;23.50;;;;;3.27;100.00;97832.03;6281202;20;2500298;-42
2023/12/02 03:23:56;;;;;;;;;38.00;27.50;;;;;3.28;100.00;97823.13;6282246;20;2864619;-43
2023/12/02 03:26:45;;;;;;;;;36.00;24.00;;;;;3.67;100.00;97820.72;6282082;20;2857527;-42
2023/12/02 03:29:34;;;;;;;;;31.00;28.00;;;;;3.49;100.00;97814.78;6283845;20;2860685;-42
2023/12/02 03:32:21;;;;;;;;;27.50;23.00;;;;;3.84;100.00;97814.31;6283408;20;2835699;-42
2023/12/02 03:35:10;;;;;;;;;33.00;26.00;;;;;3.60;100.00;97801.69;6280059;20;2496203;-42
2023/12/02 03:37:57;;;;;;;;;35.00;27.50;;;;;3.47;100.00;97814.88;6282426;20;2849359;-44
2023/12/02 03:40:45;;;;;;;;;29.50;26.00;;;;;3.83;100.00;97823.25;6282553;20;2500426;-42
2023/12/02 03:43:35;;;;;;;;;39.33;23.33;;;;;3.29;100.00;97819.53;6283843;20;2858620;-41
2023/12/02 03:46:43;;;;;;;;;42.00;23.00;;;;;3.45;100.00;97803.53;6311326;20;2865903;-42
2023/12/02 03:49:31;;;;;;;;;34.50;29.50;;;;;3.52;100.00;97799.50;6311578;20;2481531;-41
2023/12/02 03:52:19;;;;;;;;;29.50;23.00;;;;;3.70;100.00;97797.50;6282091;20;2830457;-41
2023/12/02 03:55:09;;;;;;;;;34.33;26.00;;;;;3.54;100.00;97802.06;6281950;20;2871197;-41
2023/12/02 03:57:57;;;;;;;;;39.50;28.50;;;;;3.58;100.00;97808.03;6306176;20;2500328;-42
2023/12/02 04:00:46;;;;;;;;;41.50;27.00;;;;;3.50;100.00;97805.84;6282684;20;2864862;-40
2023/12/02 04:03:35;;;;;;;;;35.50;28.50;;;;;3.61;100.00;97803.41;6282155;20;2858585;-41
2023/12/02 04:06:24;;;;;;;;;32.00;27.50;;;;;3.25;100.00;97799.44;6281488;20;2850382;-43
2023/12/02 04:09:12;;;;;;;;;34.50;26.00;;;;;3.73;100.00;97794.63;6279613;20;2850274;-42
2023/12/02 04:12:01;;;;;;;;;43.50;32.00;;;;;3.47;100.00;97795.44;6281083;20;2869135;-41
2023/12/02 04:14:50;;;;;;;;;43.00;28.50;;;;;3.29;100.00;97776.22;6281954;20;2874313;-41
2023/12/02 04:17:39;;;;;;;;;36.00;27.50;;;;;3.52;100.00;97785.41;6280880;20;2858635;-41
2023/12/02 04:20:28;;;;;;;;;37.00;28.00;;;;;3.51;100.00;97771.28;6282927;20;2866975;-42
2023/12/02 04:23:18;;;;;;;;;42.33;33.00;;;;;3.48;100.00;97781.25;6279307;20;2875417;-41
2023/12/02 04:26:08;;;;;;;;;76.67;56.00;;;;;3.59;100.00;97783.22;6312374;20;3638845;-44
2023/12/02 04:28:57;;;;;;;;;37.50;26.50;;;;;3.70;100.00;97770.09;6313488;20;2863974;-42
2023/12/02 04:31:46;;;;;;;;;35.00;28.00;;;;;3.71;100.00;97806.28;6280145;20;2863919;-42
2023/12/02 04:34:34;;;;;;;;;37.00;29.00;;;;;3.56;100.00;97799.34;6279214;20;2500410;-42
2023/12/02 04:37:24;;;;;;;;;54.50;41.50;;;;;3.77;100.00;97807.72;6279410;20;2859766;-41
2023/12/02 04:40:13;;;;;;;;;40.67;29.33;;;;;3.55;100.00;97810.88;6281220;20;3627335;-41
2023/12/02 04:43:03;;;;;;;;;48.33;29.67;;;;;3.64;100.00;97812.97;6310332;20;2874329;-42
2023/12/02 04:45:53;;;;;;;;;39.33;29.67;;;;;3.63;100.00;97811.25;6310821;20;2875384;-41
2023/12/02 04:48:43;;;;;;;;;43.67;30.33;;;;;3.33;100.00;97792.81;6308171;20;2871134;-45
2023/12/02 04:51:32;;;;;;;;;29.50;29.00;;;;;3.31;100.00;97779.66;6311804;20;2841001;-42
2023/12/02 04:54:21;;;;;;;;;38.50;30.00;;;;;3.85;100.00;97794.81;6280465;20;2856647;-42
2023/12/02 04:57:09;;;;;;;;;34.50;27.00;;;;;3.38;100.00;97775.66;6274868;20;2500313;-42
2023/12/02 04:59:58;;;;;;;;;41.50;34.00;;;;;3.45;100.00;97789.38;6280418;20;2857094;-41
2023/12/02 05:02:46;;;;;;;;;30.50;24.50;;;;;3.54;100.00;97795.94;6276950;20;2844047;-42
2023/12/02 05:05:35;;;;;;;;;31.67;23.00;;;;;3.25;100.00;97783.53;6280445;20;3585713;-41
2023/12/02 05:08:25;;;;;;;;;32.00;25.50;;;;;3.55;100.00;97792.31;6277468;20;2830605;-40
2023/12/02 05:11:22;;;;;;;;;34.00;26.50;;;;;3.63;100.00;97788.22;6277372;20;2496112;-42
2023/12/02 05:14:10;;;;;;;;;34.50;27.00;;;;;3.99;100.00;97794.75;6277299;20;2500330;-44
2023/12/02 05:16:59;;;;;;;;;32.00;23.67;;;;;3.41;100.00;97783.44;6279170;20;3577425;-43
2023/12/02 05:19:47;;;;;;;;;36.00;23.00;;;;;3.32;100.00;97743.34;6287233;20;2856533;-42
2023/12/02 05:22:35;;;;;;;;;33.00;25.50;;;;;3.85;100.00;97765.63;6281824;20;2854411;-42
2023/12/02 05:25:24;;;;;;;;;31.00;26.50;;;;;3.38;100.00;97751.78;6283840;20;2859630;-42
2023/12/02 05:28:14;;;;;;;;;32.00;25.33;;;;;3.47;100.00;97759.16;6281906;20;3568080;-43
2023/12/02 05:31:03;;;;;;;;;35.50;30.50;;;;;3.52;100.00;97769.47;6280815;20;2500344;-49
2023/12/02 05:33:51;;;;;;;;;37.00;29.00;;;;;3.42;100.00;97781.63;6283889;20;2854468;-52
2023/12/02 05:36:40;;;;;;;;;26.50;25.00;;;;;3.47;100.00;97769.75;6280895;20;2500458;-48
2023/12/02 05:39:28;;;;;;;;;32.50;26.00;;;;;3.34;100.00;97755.56;6283048;20;2500458;-47
2023/12/02 05:42:17;;;;;;;;;38.67;31.67;;;;;3.25;100.00;97757.00;6282663;20;2869032;-48
2023/12/02 05:45:07;;;;;;;;;40.00;25.00;;;;;3.09;100.00;97735.06;6314573;20;2874303;-50
2023/12/02 05:47:57;;;;;;;;;40.67;30.33;;;;;3.02;100.00;97752.31;6283740;20;2858613;-50
2023/12/02 05:50:46;;;;;;;;;36.00;26.50;;;;;3.11;100.00;97746.44;6315585;20;2848302;-49
2023/12/02 05:53:35;;;;;;;;;44.00;28.50;;;;;3.11;100.00;97751.75;6282548;20;2871158;-49
2023/12/02 05:56:24;;;;;;;;;36.50;32.50;;;;;3.37;100.00;97746.56;6281223;20;2859687;-48
2023/12/02 05:59:12;;;;;;;;;36.50;25.50;;;;;3.41;100.00;97758.72;6281278;20;2496128;-50
2023/12/02 06:02:01;;;;;;;;;46.67;34.00;;;;;3.38;100.00;97749.16;6281770;20;2865919;-48
2023/12/02 06:04:49;;;;;;;;;42.00;28.00;;;;;3.56;100.00;97757.72;6311823;20;2483665;-51
2023/12/02 06:07:38;;;;;;;;;45.50;40.00;;;;;3.52;100.00;97758.88;6280884;20;2869051;-49
2023/12/02 06:10:27;;;;;;;;;36.00;30.00;;;;;3.60;100.00;97767.19;6282067;20;2856042;-47
2023/12/02 06:13:15;;;;;;;;;37.00;29.50;;;;;3.53;100.00;97773.84;6280137;20;2500394;-51
2023/12/02 06:16:05;;;;;;;;;40.00;31.50;;;;;3.60;100.00;97780.44;6283477;20;2859672;-51
2023/12/02 06:18:54;;;;;;;;;31.33;27.67;;;;;3.59;100.00;97794.69;6281470;20;3586764;-47
2023/12/02 06:21:43;;;;;;;;;40.50;31.00;;;;;3.60;100.00;97780.44;6282872;20;2854443;-49
2023/12/02 06:24:33;;;;;;;;;53.00;37.33;;;;;3.26;100.00;97756.06;6283177;20;3639840;-47
2023/12/02 06:27:22;;;;;;;;;45.67;29.00;;;;;3.22;100.00;97745.75;6313036;20;2874333;-46
2023/12/02 06:30:16;;;;;;;;;39.67;31.33;;;;;3.50;100.00;97758.09;6312711;20;3607621;-46
2023/12/02 06:33:05;;;;;;;;;48.67;39.33;;;;;3.27;100.00;97746.31;6311997;20;2871066;-47
2023/12/02 06:35:54;;;;;;;;;47.00;40.50;;;;;3.25;100.00;97756.19;6313705;20;2856932;-51
2023/12/02 06:38:42;;;;;;;;;55.50;42.00;;;;;3.12;100.00;97763.19;6277842;20;2500340;-52
2023/12/02 06:41:32;;;;;;;;;47.00;34.33;;;;;3.27;100.00;97762.25;6281763;20;2876425;-47
2023/12/02 06:44:20;;;;;;;;;42.50;23.00;;;;;3.40;100.00;97778.22;6309162;20;2483610;-52
2023/12/02 06:47:09;;;;;;;;;31.00;31.00;;;;;3.28;100.00;97796.59;6279864;20;2848168;-47
2023/12/02 06:49:59;;;;;;;;;87.33;59.33;;;;;3.46;100.00;97789.28;6281773;20;3659660;-47
2023/12/02 06:52:50;;;;;;;;;38.00;31.00;;;;;3.40;100.00;97784.38;6311982;20;2867028;-48
2023/12/02 06:55:40;;;;;;;;;40.67;31.67;;;;;3.40;100.00;97794.16;6312514;20;2871133;-48
2023/12/02 06:58:29;;;;;;;;;40.67;31.33;;;;;3.44;100.00;97798.28;6311447;20;3612791;-51
2023/12/02 07:01:37;;;;;;;;;62.00;41.33;;;;;3.18;100.00;97776.91;6282006;20;3629465;-50
2023/12/02 07:04:27;;;;;;;;;45.00;37.50;;;;;3.22;100.00;97764.31;6314703;20;2855485;-48
2023/12/02 07:07:17;;;;;;;;;37.00;28.00;;;;;3.33;100.00;97761.00;6281850;20;2852461;-47
2023/12/02 07:10:07;;;;;;;;;47.67;38.33;;;;;3.48;100.00;97782.09;6312257;20;2877407;-47
2023/12/02 07:12:57;;;;;;;;;44.33;33.00;;;;;3.33;100.00;97777.75;6309103;20;2873365;-47
2023/12/02 07:15:47;;;;;;;;;47.33;35.67;;;;;3.23;100.00;97782.78;6311431;20;2869034;-50
2023/12/02 07:18:37;;;;;;;;;55.33;36.33;;;;;3.38;100.00;97782.78;6313046;20;3642983;-47
2023/12/02 07:21:27;;;;;;;;;55.33;38.67;;;;;3.42;100.00;97771.88;6311044;20;3653393;-48
2023/12/02 07:24:16;;;;;;;;;47.00;38.50;;;;;3.37;100.00;97797.84;6311736;20;2853440;-46
2023/12/02 07:27:05;;;;;;;;;55.00;45.50;;;;;3.89;100.00;97822.84;6281571;20;2850294;-47
2023/12/02 07:29:54;;;;;;;;;68.67;52.00;;;;;3.51;100.00;97819.03;6282115;20;2885164;-47
2023/12/02 07:32:46;;;;;;;;;61.50;42.00;;;;;3.75;100.00;97797.19;6309348;20;2881621;-49
2023/12/02 07:35:35;;;;;;;;;55.50;42.50;;;;;3.46;100.00;97788.44;6278502;20;2846190;-50
2023/12/02 07:38:25;;;;;;;;;47.33;32.33;;;;;3.38;100.00;97780.13;6279826;20;2856625;-50
2023/12/02 07:41:14;;;;;;;;;58.00;40.33;;;;;3.62;100.00;97794.47;6311277;20;3629403;-47
2023/12/02 07:43:45;;;;;;;;;63.67;45.00;;;;;3.66;100.00;97801.31;6310372;20;2873269;-45
2023/12/02 07:46:15;;;;;;;;;52.67;38.67;;;;;3.42;100.00;97800.19;6314578;20;2849275;-47
2023/12/02 07:48:44;;;;;;;;;44.50;38.00;;;;;3.68;100.00;97811.81;6309237;20;2856557;-46
2023/12/02 07:51:13;;;;;;;;;52.00;38.00;;;;;4.10;100.00;97812.63;6281838;20;3624213;-46
2023/12/02 07:53:43;;;;;;;;;55.33;40.00;;;;;3.80;100.00;97802.22;6310786;20;2860715;-45
2023/12/02 07:56:12;;;;;;;;;53.00;38.00;;;;;3.65;100.00;97778.34;6309692;20;2863934;-46
2023/12/02 07:58:42;;;;;;;;;81.00;61.67;;;;;3.65;100.00;97794.28;6277788;20;3652369;-48
2023/12/02 08:01:11;;;;;;;;;62.50;44.00;;;;;3.42;100.00;97778.97;6277058;20;2879679;-46
2023/12/02 08:03:41;;;;;;;;;87.00;66.67;;;;;3.60;100.00;97774.28;6281003;20;3655573;-48
2023/12/02 08:06:11;;;;;;;;;60.00;45.33;;;;;3.39;100.00;97769.41;6312322;20;2868226;-47
2023/12/02 08:08:41;;;;;;;;;51.67;37.33;;;;;3.77;100.00;97771.41;6311003;20;2869196;-47
2023/12/02 08:11:10;;;;;;;;;57.50;42.00;;;;;4.02;100.00;97786.59;6311555;20;2854453;-48
2023/12/02 08:13:39;;;;;;;;;46.67;34.67;;;;;3.92;100.00;97788.13;6278418;20;3629540;-50
2023/12/02 08:16:10;;;;;;;;;45.00;33.67;;;;;3.73;100.00;97780.50;6312376;20;2857600;-46
2023/12/02 08:18:40;;;;;;;;;56.33;39.33;;;;;3.64;100.00;97773.16;6313939;20;2859736;-46
2023/12/02 08:21:09;;;;;;;;;54.33;40.67;;;;;3.82;100.00;97781.72;6310289;20;2882974;-45
2023/12/02 08:23:39;;;;;;;;;58.33;41.67;;;;;3.46;100.00;97804.38;6308534;20;3621141;-47
2023/12/02 08:26:09;;;;;;;;;48.00;37.00;;;;;3.60;100.00;97801.69;6310413;20;2887863;-47
2023/12/02 08:28:37;;;;;;;;;54.50;39.50;;;;;4.25;100.00;97794.84;6310275;20;2865959;-46
2023/12/02 08:31:08;;;;;;;;;51.00;40.00;;;;;4.03;100.00;97798.94;6277564;20;3610680;-50
2023/12/02 08:33:37;;;;;;;;;53.50;40.00;;;;;4.16;100.00;97789.19;6313235;20;2869024;-46
2023/12/02 08:36:08;;;;;;;;;55.00;39.33;;;;;4.27;100.00;97790.28;6279908;20;3631566;-46
2023/12/02 08:38:37;;;;;;;;;49.00;41.00;;;;;3.81;100.00;97803.91;6311986;20;2855504;-46
2023/12/02 08:41:07;;;;;;;;;50.00;37.33;;;;;4.23;100.00;97813.53;6279453;20;3617956;-48
2023/12/02 08:43:37;;;;;;;;;53.67;40.00;;;;;3.84;100.00;97795.75;6313853;20;2879534;-48
2023/12/02 08:46:14;;;;;;;;;42.67;35.33;;;;;4.05;100.00;97806.78;6312529;20;2867060;-47
2023/12/02 08:48:45;;;;;;;;;56.50;42.00;;;;;4.05;100.00;97807.63;6313717;20;2868022;-49
2023/12/02 08:51:15;;;;;;;;;49.00;39.50;;;;;4.08;100.00;97811.88;6276864;20;2850451;-48
2023/12/02 08:53:44;;;;;;;;;48.00;36.67;;;;;3.95;100.00;97817.16;6286552;20;3619111;-47
2023/12/02 08:56:13;;;;;;;;;39.00;35.50;;;;;3.77;100.00;97797.13;6318772;20;2856565;-47
2023/12/02 08:58:42;;;;;;;;;54.50;44.00;;;;;4.01;100.00;97790.19;6286735;20;2841068;-47
2023/12/02 09:01:12;;;;;;;;;52.00;40.33;;;;;4.14;100.00;97809.69;6284854;20;2862914;-51
2023/12/02 09:03:41;;;;;;;;;46.50;37.00;;;;;3.95;100.00;97806.53;6314282;20;2858767;-49
2023/12/02 09:06:11;;;;;;;;;47.67;38.67;;;;;4.17;100.00;97806.81;6280659;20;2856883;-47
2023/12/02 09:08:40;;;;;;;;;50.50;40.50;;;;;3.93;100.00;97801.31;6317943;20;2854571;-46
2023/12/02 09:11:10;;;;;;;;;60.67;44.00;;;;;3.92;100.00;97794.31;6283079;20;3630493;-47
2023/12/02 09:13:43;;;;;;;;;66.00;44.00;;;;;4.09;100.00;97803.81;6315184;20;3614976;-48
2023/12/02 09:16:29;;;;;;;;;59.00;42.00;;;;;4.00;100.00;97799.09;6318395;20;2877435;-47
2023/12/02 09:18:59;;;;;;;;;58.33;40.00;;;;;3.92;100.00;97793.44;6315390;20;3632527;-53
2023/12/02 09:21:44;;;;;;;;;51.67;38.00;;;;;4.42;100.00;97783.09;6313961;20;2866097;-52
2023/12/02 09:24:40;;;;;;;;;55.33;40.67;;;;;4.71;100.00;97794.41;6314703;20;3620052;-48
2023/12/02 09:28:05;;;;;;;;;51.33;37.33;;;;;4.46;100.00;97777.47;6311273;20;3649222;-49
2023/12/02 09:30:42;;;;;;;;;55.33;42.67;;;;;4.60;100.00;97768.56;6313599;20;2854652;-51
2023/12/02 09:33:12;;;;;;;;;60.00;42.00;;;;;4.48;100.00;97756.97;6315024;20;2859968;-49
2023/12/02 09:35:41;;;;;;;;;50.50;41.50;;;;;4.44;100.00;97752.81;6313382;20;2850317;-54
2023/12/02 09:38:10;;;;;;;;;42.00;36.50;;;;;4.48;100.00;97737.53;6286899;20;2847292;-52
2023/12/02 09:41:25;;;;;;;;;60.33;44.00;;;;;4.33;100.00;97742.06;6282466;20;2870248;-52
2023/12/02 09:44:13;;;;;;;;;53.50;41.00;;;;;4.38;100.00;97750.56;6312254;20;2856530;-51
2023/12/02 09:47:08;;;;;;;;;62.67;43.67;;;;;4.61;100.00;97749.84;6283387;20;3627500;-51
2023/12/02 09:50:11;;;;;;;;;44.00;36.00;;;;;4.32;100.00;97762.47;6311793;20;2584853;-49
2023/12/02 09:52:51;;;;;;;;;65.50;45.50;;;;;4.33;100.00;97705.72;6283071;20;2863805;-51
2023/12/02 09:55:38;;;;;;;;;61.67;47.67;;;;;4.77;100.00;97738.19;6283853;20;2875494;-51
2023/12/02 09:58:27;;;;;;;;;69.67;53.33;;;;;4.90;100.00;97778.91;6310407;20;3620507;-50
2023/12/02 10:01:29;;;;;;;;;68.33;51.67;;;;;4.40;100.00;97724.75;6312960;20;3629597;-50
2023/12/02 10:04:02;;;;;;;;;70.00;51.00;;;;;4.70;100.00;97726.25;6307747;20;2687781;-51
2023/12/02 10:07:04;;;;;;;;;53.00;39.67;;;;;4.55;100.00;97734.31;6311695;20;2856629;-52
2023/12/02 10:10:00;;;;;;;;;62.00;48.33;;;;;4.28;100.00;97707.81;6309756;20;3632608;-49
2023/12/02 10:12:33;;;;;;;;;66.33;46.67;;;;;4.37;100.00;97712.53;6308819;20;3633620;-49
2023/12/02 10:15:06;;;;;;;;;57.00;47.00;;;;;4.25;100.00;97708.03;6312033;20;2744246;-48
2023/12/02 10:18:14;;;;;;;;;61.33;44.33;;;;;4.36;100.00;97705.50;6309938;20;2875333;-49
2023/12/02 10:20:45;;;;;;;;;62.67;49.33;;;;;4.36;100.00;97707.31;6313064;20;3608668;-54
2023/12/02 10:23:31;;;;;;;;;68.00;49.00;;;;;4.93;100.00;97709.56;6311891;20;2882669;-51
2023/12/02 10:26:26;;;;;;;;;63.00;47.00;;;;;4.56;100.00;97714.78;6313857;20;3632598;-52
2023/12/02 10:29:23;;;;;;;;;65.00;47.00;;;;;4.56;100.00;97695.31;6313641;20;3629445;-52
2023/12/02 10:32:49;;;;;;;;;58.67;45.00;;;;;5.07;100.00;97701.44;6312000;20;2858906;-51
2023/12/02 10:35:30;;;;;;;;;59.00;44.33;;;;;5.07;100.00;97690.78;6312858;20;2875578;-50
2023/12/02 10:38:45;;;;;;;;;75.67;56.33;;;;;4.80;100.00;97684.78;6313637;20;3641919;-55
2023/12/02 10:42:02;;;;;;;;;55.50;40.50;;;;;4.49;100.00;97683.41;6282547;20;2851316;-51
2023/12/02 10:44:48;;;;;;;;;55.00;42.67;;;;;4.46;100.00;97680.97;6282953;20;2873317;-53
2023/12/02 10:47:18;;;;;;;;;61.00;47.50;;;;;4.85;100.00;97669.38;6314528;20;2873238;-51
2023/12/02 10:49:50;;;;;;;;;76.00;58.00;;;;;5.30;100.00;97671.50;6282101;20;3624377;-51
2023/12/02 10:52:22;;;;;;;;;63.67;49.00;;;;;5.15;100.00;97668.13;6311162;20;3637795;-49
2023/12/02 10:55:15;;;;;;;;;63.33;48.00;;;;;4.54;100.00;97671.50;6313123;20;3626334;-50
2023/12/02 10:57:44;;;;;;;;;50.00;40.00;;;;;4.35;100.00;97666.63;6309350;20;2837792;-49
2023/12/02 11:00:36;;;;;;;;;60.00;44.00;;;;;4.85;100.00;97682.66;6278251;20;2493035;-50
2023/12/02 11:03:51;;;;;;;;;56.67;41.67;;;;;4.52;100.00;97673.41;6279775;20;2870258;-51
2023/12/02 11:06:37;;;;;;;;;55.00;41.00;;;;;4.37;100.00;97674.47;6314150;20;2850324;-49
2023/12/02 11:10:02;;;;;;;;;67.33;47.67;;;;;4.54;100.00;97678.63;6284422;20;3645122;-48
2023/12/02 11:12:55;;;;;;;;;60.33;46.67;;;;;5.37;100.00;97665.63;6311740;20;2883781;-49
2023/12/02 11:16:16;;;;;;;;;75.33;55.67;;;;;5.12;100.00;97657.72;6310062;20;3645064;-53
2023/12/02 11:19:39;;;;;;;;;68.67;51.00;;;;;5.17;100.00;97653.75;6312480;20;3627412;-49
2023/12/02 11:22:27;;;;;;;;;66.67;51.33;;;;;5.17;100.00;97655.56;6312452;20;3635757;-51
2023/12/02 11:25:41;;;;;;;;;63.33;51.00;;;;;4.52;100.00;97636.22;6310300;20;3612781;-52
2023/12/02 11:29:22;;;;;;;;;65.00;50.33;;;;;4.75;100.00;97652.34;6311338;20;2879651;-49
2023/12/02 11:33:11;;;;;;;;;60.33;46.67;;;;;4.50;100.00;97642.59;6313685;20;3619124;-53
2023/12/02 11:36:12;;;;;;;;;61.00;45.00;;;;;4.51;100.00;97639.84;6313935;20;2878463;-48
2023/12/02 11:39:38;;;;;;;;;61.33;46.00;;;;;4.33;100.00;97626.00;6312980;20;2871289;-52
2023/12/02 11:42:18;;;;;;;;;61.50;44.00;;;;;4.61;100.00;97640.88;6307726;20;2866667;-55
2023/12/02 11:45:19;;;;;;;;;61.67;47.00;;;;;4.79;100.00;97640.53;6283678;20;2873295;-52
2023/12/02 11:48:24;;;;;;;;;64.67;48.67;;;;;4.54;100.00;97638.78;6311295;20;2869097;-51
2023/12/02 11:52:10;;;;;;;;;64.33;48.00;;;;;4.84;100.00;97639.28;6308217;20;3628436;-53
2023/12/02 11:55:20;;;;;;;;;61.00;47.00;;;;;4.73;100.00;97635.66;6311212;20;2871245;-49
2023/12/02 11:58:29;;;;;;;;;77.33;56.67;;;;;5.17;100.00;97658.22;6312140;20;3618386;-49
2023/12/02 12:01:43;;;;;;;;;59.33;46.67;;;;;4.96;100.00;97656.16;6312553;20;2868145;-51
2023/12/02 12:05:05;;;;;;;;;59.33;40.33;;;;;5.15;100.00;97649.50;6310930;20;3625297;-51
2023/12/02 12:08:16;;;;;;;;;55.00;44.67;;;;;4.82;100.00;97643.00;6309226;20;2862737;-52
2023/12/02 12:10:54;;;;;;;;;60.33;44.00;;;;;4.75;100.00;97641.72;6312294;20;3612944;-50
2023/12/02 12:13:25;;;;;;;;;56.00;44.00;;;;;5.03;100.00;97646.78;6310092;20;2871177;-51
2023/12/02 12:15:55;;;;;;;;;60.00;44.00;;;;;4.87;100.00;97640.00;6277640;20;3628397;-52